DW0281 Weather Reports


time (UTC)temp
C
wind
direction
speed
KPH
gust
KPH
rain 1hr
cm
rain 24hr
cm
rain mn
cm
humidity
%
barometer
mb
20200225231811 40 223 6.4 12.9 0.03 0.03 0.03 100 990.2
20200225231626 2 112 6.4 6.4 0.00 0.00 0.00 84 993.1
20200225231611 3 45 1.6 1.6 0.00 0.00 0.00 89 982.9
20200225230310 32 178 4.8 11.3 0.00 0.00 0.00 100 990.3
20200225230126 2 157 6.4 3.2 0.00 0.00 0.00 84 993.1
20200225230112 3 67 0.0 0.0 0.00 0.00 0.00 89 983.2
20200225224626 2 135 6.4 4.8 0.00 0.25 0.25 84 993.9
20200225224611 3 157 0.0 1.6 0.00 0.13 0.13 89 983.2
20200225223126 2 135 6.4 8.0 0.00 0.25 0.25 84 993.9
20200225223110 3 315 0.0 0.0 0.00 0.13 0.13 89 983.9
20200225221811 38 175 6.4 9.7 0.00 0.15 0.15 100 990.7
20200225221611 3 45 0.0 0.0 0.00 0.13 0.13 89 983.9
20200225220310 40 206 6.4 14.5 0.00 0.15 0.15 100 990.7
20200225214809 38 193 8.0 14.5 0.00 0.15 0.15 100 990.9
20200225214610 3 112 1.6 3.2 0.00 0.13 0.13 89 984.0
20200225213314 41 201 8.0 11.3 0.00 0.15 0.15 100 990.7
20200225213125 2 112 8.0 4.8 0.00 0.25 0.25 85 994.0
20200225211814 42 184 8.0 16.1 0.00 0.15 0.15 100 990.6
20200225211625 2 135 8.0 6.4 0.00 0.25 0.25 85 994.4
20200225211609 3 67 1.6 1.6 0.00 0.13 0.13 89 984.0
20200225210314 40 200 9.7 16.1 0.00 0.15 0.15 100 990.9
20200225204614 3 22 1.6 3.2 0.00 0.13 0.13 89 984.2
20200225203125 2 112 8.0 6.4 0.00 0.25 0.25 85 994.3
20200225203114 3 22 1.6 0.0 0.00 0.13 0.13 89 984.0
20200225201813 41 146 9.7 17.7 0.00 0.15 0.15 100 991.1
20200225200125 2 135 8.0 6.4 0.00 0.25 0.25 85 994.7
20200225200113 3 360 1.6 1.6 0.00 0.13 0.13 89 984.7
20200225194613 3 337 1.6 3.2 0.00 0.13 0.13 89 984.7
20200225193126 2 135 8.0 4.8 0.00 0.25 0.25 85 994.8
20200225193113 3 22 1.6 1.6 0.00 0.13 0.13 89 984.4
20200225191625 2 157 8.0 9.7 0.00 0.25 0.25 85 995.2
20200225191613 3 22 1.6 1.6 0.00 0.13 0.13 89 984.6
20200225190315 38 171 11.3 19.3 0.00 0.15 0.15 100 991.7
20200225190113 2 45 1.6 1.6 0.00 0.13 0.13 89 984.5
20200225184812 41 204 11.3 20.9 0.00 0.15 0.15 100 991.7
20200225184625 2 112 9.7 9.7 0.00 0.25 0.25 85 994.9
20200225183125 2 157 9.7 8.0 0.00 0.25 0.25 85 994.9
20200225183112 3 22 1.6 1.6 0.00 0.13 0.13 88 984.9
20200225181612 3 112 3.2 3.2 0.00 0.13 0.13 88 985.1
20200225180311 43 223 12.9 20.9 0.00 0.15 0.15 100 991.8
20200225174811 40 177 14.5 25.7 0.00 0.15 0.15 100 991.8
20200225174625 3 270 11.3 11.3 0.00 0.25 0.25 84 995.3
20200225173125 3 135 11.3 11.3 0.00 0.25 0.25 84 995.1
20200225173111 3 22 3.2 4.8 0.00 0.13 0.13 88 984.9
20200225171811 44 172 12.9 20.9 0.00 0.15 0.15 100 991.8
20200225171625 3 112 9.7 11.3 0.00 0.25 0.25 84 995.1
20200225171611 3 67 3.2 3.2 0.00 0.13 0.13 88 984.7
20200225170311 41 164 11.3 19.3 0.03 0.15 0.15 100 991.8
20200225170111 3 22 3.2 3.2 0.00 0.13 0.13 88 984.4
20200225164810 38 176 16.1 30.6 0.03 0.15 0.15 100 991.9
20200225164625 3 135 11.3 14.5 0.00 0.25 0.25 85 995.1
20200225163125 3 45 11.3 14.5 0.00 0.25 0.25 85 995.1
20200225163110 4 135 3.2 4.8 0.00 0.13 0.13 88 984.3
20200225161625 3 225 9.7 12.9 0.00 0.25 0.25 85 995.2
20200225161610 4 45 3.2 4.8 0.00 0.13 0.13 88 984.6
20200225160310 40 188 14.5 25.7 0.00 0.15 0.15 100 991.8
20200225160110 4 67 4.8 4.8 0.00 0.13 0.13 87 984.3
20200225154809 42 198 16.1 33.8 0.00 0.15 0.15 100 991.6
20200225154625 4 135 11.3 24.1 0.00 0.25 0.25 84 995.2
20200225154610 4 45 3.2 4.8 0.00 0.13 0.13 87 984.3
20200225153125 3 135 12.9 17.7 0.00 0.25 0.25 84 995.2
20200225153111 4 270 4.8 3.2 0.00 0.13 0.13 87 984.2
20200225151625 4 67 12.9 11.3 0.00 0.25 0.25 83 995.1
20200225150125 4 135 12.9 12.9 0.00 0.25 0.25 82 995.1
20200225150114 4 315 4.8 6.4 0.00 0.13 0.13 86 984.1
20200225144814 42 179 20.9 35.4 0.03 0.15 0.15 100 991.5
20200225144614 4 67 4.8 4.8 0.00 0.13 0.13 86 984.1
20200225143313 39 159 19.3 37.0 0.05 0.15 0.15 100 991.6
20200225143124 4 180 14.5 14.5 0.08 0.25 0.25 83 994.9
20200225143114 5 90 4.8 11.3 0.08 0.13 0.13 86 984.2
20200225141614 5 337 4.8 4.8 0.08 0.13 0.13 86 984.0
20200225140125 5 67 4.8 4.8 0.08 0.13 0.13 86 984.0
20200225134813 42 201 20.9 46.7 0.05 0.13 0.13 100 991.7
20200225134624 5 135 12.9 33.8 0.00 0.15 0.15 81 994.9
20200225133313 40 179 17.7 32.2 0.03 0.10 0.10 100 991.5
20200225133124 5 135 12.9 12.9 0.00 0.15 0.15 82 995.0
20200225133113 5 22 4.8 6.4 0.00 0.08 0.08 84 983.9
20200225131624 5 135 11.3 12.9 0.00 0.15 0.15 83 994.9
20200225130124 5 180 11.3 12.9 0.00 0.15 0.15 82 994.9
20200225124812 42 200 20.9 37.0 0.00 0.08 0.08 100 991.6
20200225124624 5 202 9.7 6.4 0.00 0.15 0.15 77 994.8
20200225123312 38 201 14.5 29.0 0.00 0.08 0.08 100 991.3
20200225123113 6 22 4.8 3.2 0.00 0.08 0.08 82 984.1
20200225121612 6 22 6.4 6.4 0.00 0.08 0.08 81 984.0
20200225120311 39 219 14.5 29.0 0.00 0.08 0.08 100 991.5
20200225114811 39 194 19.3 33.8 0.00 0.08 0.08 100 991.6
20200225114624 5 135 17.7 19.3 0.00 0.15 0.15 77 995.2
20200225114611 6 337 4.8 4.8 0.00 0.08 0.08 81 984.0
20200225113311 43 218 22.5 41.8 0.00 0.08 0.08 100 991.7
20200225113111 6 45 4.8 9.7 0.00 0.08 0.08 80 984.4
20200225111811 43 216 22.5 40.2 0.00 0.08 0.08 100 991.7
20200225111611 6 292 4.8 8.0 0.00 0.08 0.08 79 984.4
20200225110124 6 225 14.5 16.1 0.00 0.15 0.15 74 994.9
20200225110111 6 360 4.8 4.8 0.00 0.08 0.08 80 983.8
20200225104811 40 203 16.1 40.2 0.00 0.08 0.08 100 991.6
20200225104624 6 135 20.9 25.7 0.00 0.15 0.15 74 995.0
20200225104611 6 22 4.8 3.2 0.00 0.08 0.08 80 983.8
20200225103124 6 157 17.7 24.1 0.00 0.15 0.15 75 995.1
20200225101810 43 185 16.1 32.2 0.00 0.08 0.08 100 991.5
20200225101624 6 157 19.3 14.5 0.00 0.15 0.15 75 995.2
20200225101610 6 67 4.8 3.2 0.00 0.08 0.08 81 984.1
20200225100124 6 157 17.7 24.1 0.00 0.15 0.15 75 995.2
20200225094624 6 157 17.7 16.1 0.00 0.15 0.15 77 995.0
20200225093124 6 135 17.7 20.9 0.00 0.15 0.15 78 995.5
20200225093109 6 337 4.8 6.4 0.00 0.08 0.08 83 984.1
20200225091809 46 212 20.9 38.6 0.00 0.08 0.08 100 992.1
20200225090309 46 167 16.1 29.0 0.00 0.08 0.08 100 992.4
20200225090110 6 67 3.2 4.8 0.00 0.08 0.08 85 983.2